createdAt,value
2023-01-15T00:01:03.050Z,16.80
2023-01-15T00:03:30.934Z,13.67
2023-01-15T00:06:02.398Z,16.80
2023-01-15T00:08:29.663Z,12.87
2023-01-15T00:10:56.925Z,13.80
2023-01-15T00:13:24.140Z,12.80
2023-01-15T00:15:51.301Z,16.13
2023-01-15T00:18:18.677Z,17.80
2023-01-15T00:20:45.811Z,15.03
2023-01-15T00:23:32.890Z,20.13
2023-01-15T00:26:38.750Z,15.53
2023-01-15T00:29:07.494Z,14.70
2023-01-15T00:31:35.974Z,14.27
2023-01-15T00:34:03.700Z,12.03
2023-01-15T00:36:31.331Z,15.93
2023-01-15T00:38:58.458Z,15.67
2023-01-15T00:41:25.606Z,17.80
2023-01-15T00:43:53.096Z,16.27
2023-01-15T00:46:20.514Z,13.50
2023-01-15T00:48:47.711Z,15.40
2023-01-15T00:51:15.071Z,13.17
2023-01-15T00:53:42.203Z,14.03
2023-01-15T00:56:09.322Z,12.90
2023-01-15T00:58:36.538Z,17.37
2023-01-15T01:01:03.758Z,14.50
2023-01-15T01:03:31.015Z,16.93
2023-01-15T01:06:02.627Z,16.97
2023-01-15T01:08:30.194Z,13.40
2023-01-15T01:11:07.381Z,18.23
2023-01-15T01:13:35.483Z,17.83
2023-01-15T01:16:02.670Z,16.47
2023-01-15T01:18:30.167Z,11.00
2023-01-15T01:20:57.594Z,14.00
2023-01-15T01:23:24.971Z,16.80
2023-01-15T01:25:52.137Z,15.37
2023-01-15T01:28:19.299Z,17.73
2023-01-15T01:30:46.491Z,16.97
2023-01-15T01:33:13.621Z,15.20
2023-01-15T01:35:40.736Z,18.80
2023-01-15T01:38:07.898Z,18.53
2023-01-15T01:40:35.020Z,16.47
2023-01-15T01:43:02.139Z,18.40
2023-01-15T01:45:30.826Z,21.70
2023-01-15T01:48:03.970Z,13.40
2023-01-15T01:50:32.530Z,21.13
2023-01-15T01:53:04.392Z,21.83
2023-01-15T01:55:31.953Z,20.20
2023-01-15T01:58:00.383Z,15.63
2023-01-15T02:00:28.674Z,14.57
2023-01-15T02:02:55.879Z,18.50
2023-01-15T02:05:28.596Z,17.83
2023-01-15T02:07:56.260Z,14.70
2023-01-15T02:10:23.435Z,17.07
2023-01-15T02:13:11.648Z,17.73
2023-01-15T02:15:41.211Z,17.43
2023-01-15T02:18:21.133Z,18.50
2023-01-15T02:20:57.741Z,19.93
2023-01-15T02:23:33.030Z,18.77
2023-01-15T02:26:01.341Z,20.63
2023-01-15T02:28:33.936Z,14.17
2023-01-15T02:31:05.705Z,17.60
2023-01-15T02:33:45.784Z,18.33
2023-01-15T02:36:15.663Z,19.50
2023-01-15T02:38:45.892Z,20.80
2023-01-15T02:41:17.647Z,16.33
2023-01-15T02:43:50.849Z,16.73
2023-01-15T02:46:19.162Z,19.27
2023-01-15T02:48:48.203Z,15.33
2023-01-15T02:51:16.577Z,21.30
2023-01-15T02:53:45.264Z,14.77
2023-01-15T02:56:23.521Z,17.10
2023-01-15T02:58:53.209Z,11.60
2023-01-15T03:01:27.114Z,15.07
2023-01-15T03:03:54.303Z,15.80
2023-01-15T03:06:36.675Z,15.13
2023-01-15T03:09:03.799Z,10.83
2023-01-15T03:11:34.041Z,16.40
2023-01-15T03:14:09.125Z,16.73
2023-01-15T03:16:40.639Z,16.30
2023-01-15T03:19:26.443Z,12.07
2023-01-15T03:21:53.537Z,16.50
2023-01-15T03:24:33.226Z,14.30
2023-01-15T03:27:00.964Z,15.73
2023-01-15T03:29:29.793Z,13.90
2023-01-15T03:31:57.158Z,14.23
2023-01-15T03:34:25.744Z,13.23
2023-01-15T03:36:52.871Z,12.10
2023-01-15T03:39:20.014Z,15.53
2023-01-15T03:41:52.387Z,12.67
2023-01-15T03:44:22.440Z,15.97
2023-01-15T03:46:49.546Z,14.33
2023-01-15T03:49:16.641Z,17.60
2023-01-15T03:51:49.728Z,14.17
2023-01-15T03:54:20.547Z,23.87
2023-01-15T03:56:55.737Z,16.70
2023-01-15T03:59:24.433Z,16.00
2023-01-15T04:01:52.203Z,15.30
2023-01-15T04:04:19.447Z,14.50
2023-01-15T04:06:47.073Z,12.80
2023-01-15T04:09:14.952Z,18.70
2023-01-15T04:11:42.144Z,18.03
2023-01-15T04:14:10.227Z,17.67
2023-01-15T04:16:37.336Z,18.93
2023-01-15T04:19:04.459Z,21.37
2023-01-15T04:21:31.588Z,15.43
2023-01-15T04:23:58.759Z,15.60
2023-01-15T04:26:26.169Z,15.70
2023-01-15T04:28:53.281Z,16.70
2023-01-15T04:31:20.558Z,17.23
2023-01-15T04:33:47.727Z,20.10
2023-01-15T04:36:14.895Z,18.60
2023-01-15T04:38:42.051Z,14.97
2023-01-15T04:41:28.962Z,18.53
2023-01-15T04:44:08.568Z,19.63
2023-01-15T04:46:37.051Z,17.57
2023-01-15T04:49:05.157Z,20.93
2023-01-15T04:51:32.300Z,19.07
2023-01-15T04:54:01.579Z,19.73
2023-01-15T04:56:28.703Z,23.70
2023-01-15T04:58:55.847Z,14.77
2023-01-15T05:01:23.068Z,21.37
2023-01-15T05:03:50.245Z,15.73
2023-01-15T05:06:18.490Z,16.13
2023-01-15T05:08:46.009Z,20.10
2023-01-15T05:11:13.249Z,19.83
2023-01-15T05:13:40.395Z,16.77
2023-01-15T05:16:08.453Z,20.90
2023-01-15T05:18:35.743Z,18.60
2023-01-15T05:21:03.776Z,19.00
2023-01-15T05:23:30.962Z,14.90
2023-01-15T05:25:58.132Z,15.77
2023-01-15T05:28:25.302Z,17.33
2023-01-15T05:30:52.583Z,16.77
2023-01-15T05:33:19.707Z,23.03
2023-01-15T05:35:46.812Z,18.53
2023-01-15T05:38:13.957Z,19.07
2023-01-15T05:40:41.073Z,12.83
2023-01-15T05:43:08.219Z,18.83
2023-01-15T05:45:36.638Z,20.87
2023-01-15T05:48:03.848Z,22.03
2023-01-15T05:50:30.956Z,23.60
2023-01-15T05:52:58.197Z,24.87
2023-01-15T05:55:25.356Z,22.50
2023-01-15T05:57:52.463Z,19.33
2023-01-15T06:00:19.856Z,19.77
2023-01-15T06:02:50.432Z,17.20
2023-01-15T06:05:20.295Z,20.87
2023-01-15T06:07:52.807Z,14.87
2023-01-15T06:10:20.050Z,17.13
2023-01-15T06:12:47.266Z,16.77
2023-01-15T06:15:14.480Z,15.97
2023-01-15T06:17:41.660Z,19.33
2023-01-15T06:20:09.204Z,23.17
2023-01-15T06:22:38.804Z,19.10
2023-01-15T06:25:06.304Z,16.43
2023-01-15T06:27:33.460Z,16.80
2023-01-15T06:30:00.624Z,17.30
2023-01-15T06:32:27.788Z,19.63
2023-01-15T06:34:54.928Z,13.67
2023-01-15T06:37:22.062Z,19.03
2023-01-15T06:39:49.240Z,18.10
2023-01-15T06:42:35.129Z,20.93
2023-01-15T06:45:21.321Z,18.43
2023-01-15T06:47:48.651Z,17.20
2023-01-15T06:50:16.161Z,13.03
2023-01-15T06:52:43.312Z,19.47
2023-01-15T06:55:11.602Z,16.67
2023-01-15T06:57:39.866Z,20.70
2023-01-15T07:00:07.933Z,23.93
2023-01-15T07:02:35.374Z,18.70
2023-01-15T07:05:02.601Z,22.47
2023-01-15T07:07:30.141Z,20.23
2023-01-15T07:09:57.438Z,17.67
2023-01-15T07:12:24.831Z,22.13
2023-01-15T07:14:52.083Z,17.57
2023-01-15T07:17:19.264Z,20.13
2023-01-15T07:19:47.930Z,16.83
2023-01-15T07:22:15.152Z,19.47
2023-01-15T07:24:42.315Z,16.03
2023-01-15T07:27:09.580Z,21.10
2023-01-15T07:29:36.717Z,17.03
2023-01-15T07:32:03.933Z,18.67
2023-01-15T07:34:31.088Z,15.77
2023-01-15T07:36:58.219Z,20.70
2023-01-15T07:39:25.457Z,20.27
2023-01-15T07:42:11.193Z,24.43
2023-01-15T07:44:57.210Z,17.43
2023-01-15T07:47:44.034Z,19.57
2023-01-15T07:50:18.534Z,21.77
2023-01-15T07:52:46.399Z,18.87
2023-01-15T07:55:14.026Z,17.23
2023-01-15T07:57:42.112Z,20.63
2023-01-15T08:00:20.024Z,19.80
2023-01-15T08:02:49.757Z,22.20
2023-01-15T08:05:17.354Z,21.43
2023-01-15T08:07:45.286Z,19.33
2023-01-15T08:10:14.071Z,26.00
2023-01-15T08:13:00.113Z,18.33
2023-01-15T08:15:27.596Z,22.33
2023-01-15T08:17:54.938Z,17.27
2023-01-15T08:20:24.143Z,21.47
2023-01-15T08:22:51.338Z,19.33
2023-01-15T08:25:22.796Z,18.53
2023-01-15T08:27:49.940Z,18.20
2023-01-15T08:30:18.395Z,16.00
2023-01-15T08:32:45.710Z,16.00
2023-01-15T08:35:13.197Z,17.00
2023-01-15T08:37:41.434Z,15.93
2023-01-15T08:40:09.270Z,19.40
2023-01-15T08:42:36.481Z,16.00
2023-01-15T08:45:03.856Z,14.07
2023-01-15T08:47:32.442Z,17.60
2023-01-15T08:49:59.631Z,11.43
2023-01-15T08:52:26.792Z,15.07
2023-01-15T08:54:53.944Z,22.10
2023-01-15T08:57:21.099Z,18.37
2023-01-15T08:59:48.651Z,18.57
2023-01-15T09:02:17.628Z,17.20
2023-01-15T09:04:44.864Z,17.17
2023-01-15T09:07:12.933Z,16.63
2023-01-15T09:09:40.108Z,19.27
2023-01-15T09:12:07.368Z,19.47
2023-01-15T09:14:59.636Z,19.27
2023-01-15T09:17:21.610Z,10.37
2023-01-15T09:19:48.774Z,15.30
2023-01-15T09:22:15.976Z,14.70
2023-01-15T09:24:43.121Z,18.00
2023-01-15T09:27:12.056Z,15.90
2023-01-15T09:29:39.191Z,18.03
2023-01-15T09:32:08.115Z,22.20
2023-01-15T09:34:35.321Z,15.63
2023-01-15T09:37:02.709Z,21.87
2023-01-15T09:39:29.878Z,19.33
2023-01-15T09:42:07.860Z,21.17
2023-01-15T09:44:35.043Z,16.93
2023-01-15T09:47:05.099Z,17.87
2023-01-15T09:49:50.821Z,16.17
2023-01-15T09:52:17.914Z,18.13
2023-01-15T09:54:51.068Z,18.30
2023-01-15T09:57:19.312Z,18.27
2023-01-15T09:59:50.174Z,17.27
2023-01-15T10:02:23.103Z,25.83
2023-01-15T10:04:52.834Z,16.53
2023-01-15T10:07:22.777Z,17.37
2023-01-15T10:09:53.657Z,16.57
2023-01-15T10:12:35.622Z,18.13
2023-01-15T10:15:11.095Z,18.20
2023-01-15T10:17:40.221Z,23.27
2023-01-15T10:20:12.926Z,19.03
2023-01-15T10:22:45.707Z,20.40
2023-01-15T10:25:17.311Z,22.40
2023-01-15T10:27:48.706Z,25.97
2023-01-15T10:30:17.055Z,21.67
2023-01-15T10:33:02.456Z,14.50
2023-01-15T10:35:37.628Z,18.37
2023-01-15T10:38:17.124Z,18.97
2023-01-15T10:40:44.267Z,18.70
2023-01-15T10:43:11.431Z,17.13
2023-01-15T10:45:43.935Z,17.63
2023-01-15T10:48:11.093Z,22.57
2023-01-15T10:50:38.306Z,23.37
2023-01-15T10:53:09.142Z,18.93
2023-01-15T10:55:38.071Z,18.00
2023-01-15T10:58:17.769Z,18.50
2023-01-15T11:00:48.116Z,19.07
2023-01-15T11:03:18.374Z,20.70
2023-01-15T11:05:49.774Z,19.47
2023-01-15T11:09:07.417Z,23.77
2023-01-15T11:11:18.739Z,22.67
2023-01-15T11:14:15.322Z,22.60
2023-01-15T11:17:02.705Z,16.60
2023-01-15T11:19:37.090Z,15.73
2023-01-15T11:22:15.201Z,19.13
2023-01-15T11:24:50.315Z,20.43
2023-01-15T11:27:19.932Z,20.93
2023-01-15T11:29:52.043Z,16.67
2023-01-15T11:32:21.158Z,17.97
2023-01-15T11:34:55.428Z,18.67
2023-01-15T11:37:22.784Z,18.97
2023-01-15T11:40:07.934Z,20.13
2023-01-15T11:42:56.741Z,22.67
2023-01-15T11:45:43.799Z,22.57
2023-01-15T11:48:36.516Z,18.57
2023-01-15T11:51:03.655Z,15.80
2023-01-15T11:53:33.488Z,20.10
2023-01-15T11:56:01.892Z,17.93
2023-01-15T11:58:30.295Z,20.27
2023-01-15T12:00:59.052Z,17.70
2023-01-15T12:03:31.367Z,18.40
2023-01-15T12:06:00.863Z,18.37
2023-01-15T12:08:34.127Z,17.50
2023-01-15T12:11:21.335Z,19.33
2023-01-15T12:14:01.341Z,22.73
2023-01-15T12:16:41.494Z,17.03
2023-01-15T12:19:08.593Z,15.13
2023-01-15T12:21:35.773Z,19.20
2023-01-15T12:24:23.209Z,14.03
2023-01-15T12:27:07.136Z,12.60
2023-01-15T12:29:55.250Z,14.40
2023-01-15T12:32:25.468Z,18.37
2023-01-15T12:34:59.134Z,14.57
2023-01-15T12:37:29.051Z,17.20
2023-01-15T12:40:14.673Z,15.30
2023-01-15T12:43:03.754Z,17.63
2023-01-15T12:45:34.083Z,13.07
2023-01-15T12:48:04.421Z,19.50
2023-01-15T12:50:48.668Z,14.43
2023-01-15T12:53:22.119Z,13.80
2023-01-15T12:56:08.123Z,14.07
2023-01-15T12:58:43.127Z,17.43
2023-01-15T13:01:19.921Z,17.57
2023-01-15T13:03:47.211Z,14.67
2023-01-15T13:06:14.590Z,16.27
2023-01-15T13:08:48.225Z,16.77
2023-01-15T13:11:15.344Z,17.27
2023-01-15T13:13:43.387Z,19.47
2023-01-15T13:16:19.749Z,20.53
2023-01-15T13:19:02.009Z,17.30
2023-01-15T13:21:30.983Z,20.53
2023-01-15T13:24:17.158Z,22.27
2023-01-15T13:26:45.393Z,17.70
2023-01-15T13:29:12.539Z,17.40
2023-01-15T13:31:40.553Z,18.13
2023-01-15T13:34:11.068Z,17.70
2023-01-15T13:36:40.795Z,14.13
2023-01-15T13:39:08.853Z,18.63
2023-01-15T13:41:54.887Z,19.57
2023-01-15T13:44:23.662Z,13.80
2023-01-15T13:47:04.791Z,18.77
2023-01-15T13:49:36.731Z,17.10
2023-01-15T13:52:05.835Z,19.03
2023-01-15T13:54:36.559Z,18.93
2023-01-15T13:57:11.321Z,20.37
2023-01-15T13:59:45.341Z,15.27
2023-01-15T14:02:21.840Z,22.23
2023-01-15T14:04:49.055Z,16.97
2023-01-15T14:07:31.538Z,16.33
2023-01-15T14:10:08.576Z,14.83
2023-01-15T14:12:50.355Z,17.33
2023-01-15T14:15:34.030Z,19.97
2023-01-15T14:18:01.144Z,17.47
2023-01-15T14:20:39.579Z,15.93
2023-01-15T14:23:09.814Z,16.90
2023-01-15T14:25:42.720Z,14.47
2023-01-15T14:28:35.289Z,18.83
2023-01-15T14:31:08.438Z,15.40
2023-01-15T14:33:41.444Z,15.70
2023-01-15T14:36:10.249Z,11.60
2023-01-15T14:38:37.571Z,14.57
2023-01-15T14:41:07.304Z,20.07
2023-01-15T14:43:36.110Z,17.30
2023-01-15T14:46:14.809Z,14.80
2023-01-15T14:48:41.991Z,17.27
2023-01-15T14:51:09.663Z,18.93
2023-01-15T14:53:48.323Z,18.07
2023-01-15T14:56:15.493Z,19.67
2023-01-15T14:58:52.001Z,18.83
2023-01-15T15:01:22.151Z,18.60
2023-01-15T15:03:56.929Z,16.10
2023-01-15T15:06:24.273Z,17.40
2023-01-15T15:08:52.006Z,13.90
2023-01-15T15:11:41.769Z,11.70
2023-01-15T15:14:09.869Z,15.80
2023-01-15T15:16:41.740Z,10.97
2023-01-15T15:19:25.709Z,10.20
2023-01-15T15:21:53.643Z,13.20
2023-01-15T15:24:26.912Z,8.30
2023-01-15T15:26:54.039Z,10.73
2023-01-15T15:29:22.233Z,8.17
2023-01-15T15:31:56.043Z,9.60
2023-01-15T15:34:27.260Z,10.07
2023-01-15T15:36:55.341Z,11.27
2023-01-15T15:39:40.620Z,9.50
2023-01-15T15:42:31.532Z,12.40
2023-01-15T15:45:18.896Z,13.53
2023-01-15T15:48:05.037Z,13.53
2023-01-15T15:50:33.646Z,10.37
2023-01-15T15:53:04.581Z,12.83
2023-01-15T15:55:38.938Z,15.17
2023-01-15T15:58:06.558Z,17.57
2023-01-15T16:00:35.309Z,14.60
2023-01-15T16:03:07.575Z,20.30
2023-01-15T16:05:34.967Z,22.40
2023-01-15T16:08:09.555Z,19.73
2023-01-15T16:10:36.744Z,16.77
2023-01-15T16:13:05.119Z,14.23
2023-01-15T16:15:34.930Z,17.20
2023-01-15T16:18:03.049Z,21.13
2023-01-15T16:20:30.254Z,26.07
2023-01-15T16:22:59.707Z,17.93
2023-01-15T16:25:47.097Z,15.70
2023-01-15T16:28:25.289Z,16.63
2023-01-15T16:31:13.370Z,14.57
2023-01-15T16:33:40.638Z,19.20
2023-01-15T16:36:08.396Z,23.80
2023-01-15T16:38:42.793Z,15.50
2023-01-15T16:41:27.614Z,19.17
2023-01-15T16:43:59.161Z,16.60
2023-01-15T16:46:28.949Z,22.60
2023-01-15T16:49:14.972Z,17.67
2023-01-15T16:51:43.109Z,20.73
2023-01-15T16:54:41.471Z,23.13
2023-01-15T16:57:38.051Z,16.00
2023-01-15T17:00:07.543Z,19.57
2023-01-15T17:02:40.867Z,16.60
2023-01-15T17:05:26.479Z,17.60
2023-01-15T17:07:54.836Z,19.00
2023-01-15T17:10:23.159Z,20.37
2023-01-15T17:12:50.490Z,24.20
2023-01-15T17:15:18.114Z,16.83
2023-01-15T17:17:46.138Z,18.30
2023-01-15T17:20:14.030Z,16.17
2023-01-15T17:22:41.751Z,15.43
2023-01-15T17:25:22.591Z,16.20
2023-01-15T17:27:49.807Z,13.37
2023-01-15T17:30:17.335Z,14.57
2023-01-15T17:32:44.507Z,14.33
2023-01-15T17:35:20.714Z,25.20
2023-01-15T17:37:47.869Z,14.20
2023-01-15T17:40:15.227Z,17.43
2023-01-15T17:42:42.371Z,15.50
2023-01-15T17:45:16.422Z,16.20
2023-01-15T17:47:43.826Z,17.93
2023-01-15T17:50:11.435Z,11.10
2023-01-15T17:52:38.777Z,15.30
2023-01-15T17:55:24.842Z,12.17
2023-01-15T17:58:10.867Z,13.30
2023-01-15T18:00:56.944Z,12.93
2023-01-15T18:03:42.948Z,10.63
2023-01-15T18:06:11.419Z,7.43
2023-01-15T18:08:39.444Z,5.20
2023-01-15T18:11:06.594Z,7.77
2023-01-15T18:13:33.737Z,8.00
2023-01-15T18:16:00.978Z,9.30
2023-01-15T18:18:28.160Z,8.30
2023-01-15T18:20:55.282Z,7.03
2023-01-15T18:23:22.523Z,13.20
2023-01-15T18:25:49.896Z,7.50
2023-01-15T18:28:17.033Z,10.10
2023-01-15T18:30:44.163Z,10.00
2023-01-15T18:33:11.307Z,10.53
2023-01-15T18:35:38.449Z,9.93
2023-01-15T18:38:05.664Z,8.33
2023-01-15T18:40:35.891Z,7.10
2023-01-15T18:43:21.764Z,8.90
2023-01-15T18:46:08.182Z,11.97
2023-01-15T18:48:35.403Z,11.03
2023-01-15T18:51:09.571Z,8.37
2023-01-15T18:53:36.769Z,6.40
2023-01-15T18:56:04.664Z,8.27
2023-01-15T18:58:31.883Z,11.00
2023-01-15T19:00:59.167Z,13.03
2023-01-15T19:03:26.559Z,8.70
2023-01-15T19:05:53.719Z,10.53
2023-01-15T19:08:20.999Z,8.93
2023-01-15T19:10:48.126Z,8.63
2023-01-15T19:13:18.107Z,9.93
2023-01-15T19:16:04.109Z,9.03
2023-01-15T19:18:52.378Z,8.40
2023-01-15T19:21:24.813Z,5.67
2023-01-15T19:23:52.535Z,9.27
2023-01-15T19:26:19.689Z,13.53
2023-01-15T19:28:46.808Z,10.57
2023-01-15T19:31:32.625Z,11.73
2023-01-15T19:34:31.120Z,5.10
2023-01-15T19:36:50.944Z,9.67
2023-01-15T19:39:18.261Z,13.53
2023-01-15T19:42:04.298Z,12.70
2023-01-15T19:44:50.232Z,14.03
2023-01-15T19:47:55.986Z,13.47
2023-01-15T19:50:31.626Z,13.63
2023-01-15T19:52:58.844Z,13.37
2023-01-15T19:55:26.319Z,10.43
2023-01-15T19:58:00.166Z,13.13
2023-01-15T20:00:27.770Z,8.13
2023-01-15T20:02:56.238Z,11.83
2023-01-15T20:05:24.288Z,12.27
2023-01-15T20:07:51.520Z,12.80
2023-01-15T20:10:20.292Z,11.40
2023-01-15T20:13:06.371Z,9.10
2023-01-15T20:15:33.637Z,10.77
2023-01-15T20:18:00.800Z,7.27
2023-01-15T20:20:27.991Z,5.43
2023-01-15T20:22:58.435Z,3.90
2023-01-15T20:25:27.365Z,3.77
2023-01-15T20:27:55.088Z,5.77
2023-01-15T20:30:23.289Z,6.27
2023-01-15T20:32:51.308Z,3.57
2023-01-15T20:35:20.928Z,5.20
2023-01-15T20:37:48.874Z,6.20
2023-01-15T20:40:17.213Z,6.87
2023-01-15T20:43:02.900Z,9.57
2023-01-15T20:45:30.201Z,6.23
2023-01-15T20:48:12.807Z,10.80
2023-01-15T20:50:41.467Z,8.63
2023-01-15T20:53:09.201Z,6.67
2023-01-15T20:55:54.832Z,7.70
2023-01-15T20:58:24.168Z,6.90
2023-01-15T21:00:51.425Z,10.90
2023-01-15T21:03:18.864Z,6.90
2023-01-15T21:05:46.119Z,6.90
2023-01-15T21:08:13.351Z,11.60
2023-01-15T21:10:41.578Z,8.07
2023-01-15T21:13:08.885Z,8.60
2023-01-15T21:15:36.079Z,9.53
2023-01-15T21:18:03.282Z,10.27
2023-01-15T21:20:30.515Z,12.03
2023-01-15T21:22:58.070Z,11.13
2023-01-15T21:25:25.596Z,10.47
2023-01-15T21:27:52.901Z,9.40
2023-01-15T21:30:21.024Z,8.17
2023-01-15T21:32:48.679Z,9.63
2023-01-15T21:35:15.913Z,16.87
2023-01-15T21:37:43.108Z,10.60
2023-01-15T21:40:10.808Z,15.00
2023-01-15T21:42:56.559Z,11.33
2023-01-15T21:45:23.701Z,11.80
2023-01-15T21:47:50.843Z,12.67
2023-01-15T21:50:18.978Z,14.43
2023-01-15T21:52:48.240Z,10.90
2023-01-15T21:55:15.686Z,14.40
2023-01-15T21:57:42.954Z,15.83
2023-01-15T22:00:11.452Z,15.13
2023-01-15T22:02:38.633Z,16.53
2023-01-15T22:05:06.131Z,15.63
2023-01-15T22:07:33.316Z,19.10
2023-01-15T22:10:01.664Z,11.93
2023-01-15T22:12:28.920Z,8.80
2023-01-15T22:14:57.493Z,7.60
2023-01-15T22:17:24.715Z,7.87
2023-01-15T22:19:51.959Z,14.60
2023-01-15T22:22:19.219Z,7.10
2023-01-15T22:24:46.423Z,11.27
2023-01-15T22:27:15.757Z,10.80
2023-01-15T22:29:43.791Z,10.10
2023-01-15T22:32:13.104Z,11.97
2023-01-15T22:34:40.501Z,13.83
2023-01-15T22:37:07.798Z,10.23
2023-01-15T22:39:35.409Z,15.40
2023-01-15T22:42:21.279Z,7.60
2023-01-15T22:44:49.614Z,11.17
2023-01-15T22:47:17.549Z,12.70
2023-01-15T22:49:44.696Z,10.33
2023-01-15T22:52:11.929Z,9.03
2023-01-15T22:54:39.205Z,11.60
2023-01-15T22:57:06.377Z,10.13
2023-01-15T22:59:33.527Z,8.47
2023-01-15T23:02:00.711Z,11.53
2023-01-15T23:04:28.402Z,12.40
2023-01-15T23:06:55.589Z,12.47
2023-01-15T23:09:23.563Z,11.23
2023-01-15T23:11:51.555Z,10.20
2023-01-15T23:14:20.062Z,14.63
2023-01-15T23:16:47.279Z,8.60
2023-01-15T23:19:14.596Z,9.27
2023-01-15T23:21:42.293Z,13.77
2023-01-15T23:24:09.809Z,11.97
2023-01-15T23:26:37.132Z,6.13
2023-01-15T23:29:04.583Z,8.67
2023-01-15T23:31:32.171Z,11.07
2023-01-15T23:33:59.465Z,9.80
2023-01-15T23:36:26.909Z,9.43
2023-01-15T23:38:54.120Z,10.10
2023-01-15T23:41:40.689Z,8.50
2023-01-15T23:44:31.788Z,11.20
2023-01-15T23:46:58.924Z,9.77
2023-01-15T23:49:26.307Z,10.93
2023-01-15T23:51:53.609Z,9.70
2023-01-15T23:54:20.739Z,8.20
2023-01-15T23:56:49.110Z,8.47
2023-01-15T23:59:16.385Z,7.97
